sensor_id;sensor_type;location;lat;lon;timestamp;pressure;altitude;pressure_sealevel;temperature
19102;BMP280;9683;49.028;12.064;2023-05-29T00:02:24;97304.66;;;19.38
19102;BMP280;9683;49.028;12.064;2023-05-29T00:04:51;97320.06;;;19.33
19102;BMP280;9683;49.028;12.064;2023-05-29T00:07:17;97322.78;;;19.28
19102;BMP280;9683;49.028;12.064;2023-05-29T00:09:44;97321.22;;;19.21
19102;BMP280;9683;49.028;12.064;2023-05-29T00:12:12;97322.84;;;19.17
19102;BMP280;9683;49.028;12.064;2023-05-29T00:14:38;97313.72;;;19.08
19102;BMP280;9683;49.028;12.064;2023-05-29T00:17:05;97329.34;;;19.11
19102;BMP280;9683;49.028;12.064;2023-05-29T00:19:32;97327.47;;;19.07
19102;BMP280;9683;49.028;12.064;2023-05-29T00:21:58;97336.91;;;19.09
19102;BMP280;9683;49.028;12.064;2023-05-29T00:24:25;97330.16;;;19.07
19102;BMP280;9683;49.028;12.064;2023-05-29T00:26:51;97325.59;;;19.02
19102;BMP280;9683;49.028;12.064;2023-05-29T00:29:20;97330.97;;;19.07
19102;BMP280;9683;49.028;12.064;2023-05-29T00:31:47;97298.41;;;18.84
19102;BMP280;9683;49.028;12.064;2023-05-29T00:34:14;97336.13;;;19.04
19102;BMP280;9683;49.028;12.064;2023-05-29T00:36:40;97336.19;;;18.89
19102;BMP280;9683;49.028;12.064;2023-05-29T00:39:07;97327.84;;;18.70
19102;BMP280;9683;49.028;12.064;2023-05-29T00:41:34;97329.22;;;18.57
19102;BMP280;9683;49.028;12.064;2023-05-29T00:44:00;97320.84;;;18.39
19102;BMP280;9683;49.028;12.064;2023-05-29T00:46:30;97312.50;;;18.15
19102;BMP280;9683;49.028;12.064;2023-05-29T00:48:58;97320.31;;;18.11
19102;BMP280;9683;49.028;12.064;2023-05-29T00:51:25;97321.69;;;18.14
19102;BMP280;9683;49.028;12.064;2023-05-29T00:53:53;97325.72;;;18.21
19102;BMP280;9683;49.028;12.064;2023-05-29T00:56:20;97306.56;;;18.23
19102;BMP280;9683;49.028;12.064;2023-05-29T00:58:49;97315.47;;;18.39
19102;BMP280;9683;49.028;12.064;2023-05-29T01:01:17;97325.44;;;18.33
19102;BMP280;9683;49.028;12.064;2023-05-29T01:03:45;97313.84;;;18.22
19102;BMP280;9683;49.028;12.064;2023-05-29T01:06:16;97319.50;;;18.16
19102;BMP280;9683;49.028;12.064;2023-05-29T01:08:44;97317.09;;;18.09
19102;BMP280;9683;49.028;12.064;2023-05-29T01:11:21;97326.50;;;18.07
19102;BMP280;9683;49.028;12.064;2023-05-29T01:13:52;97320.84;;;18.03
19102;BMP280;9683;49.028;12.064;2023-05-29T01:16:26;97322.47;;;17.99
19102;BMP280;9683;49.028;12.064;2023-05-29T01:19:06;97322.47;;;18.14
19102;BMP280;9683;49.028;12.064;2023-05-29T01:21:56;97324.34;;;18.19
19102;BMP280;9683;49.028;12.064;2023-05-29T01:24:32;97319.78;;;18.19
19102;BMP280;9683;49.028;12.064;2023-05-29T01:27:02;97312.75;;;18.23
19102;BMP280;9683;49.028;12.064;2023-05-29T01:29:32;97311.16;;;18.22
19102;BMP280;9683;49.028;12.064;2023-05-29T01:32:00;97303.09;;;18.17
19102;BMP280;9683;49.028;12.064;2023-05-29T01:34:28;97309.25;;;18.23
19102;BMP280;9683;49.028;12.064;2023-05-29T01:36:54;97302.28;;;18.22
19102;BMP280;9683;49.028;12.064;2023-05-29T01:39:21;97300.91;;;18.19
19102;BMP280;9683;49.028;12.064;2023-05-29T01:41:48;97310.34;;;18.22
19102;BMP280;9683;49.028;12.064;2023-05-29T01:44:16;97302.28;;;18.17
19102;BMP280;9683;49.028;12.064;2023-05-29T01:46:43;97305.78;;;18.17
19102;BMP280;9683;49.028;12.064;2023-05-29T01:49:11;97306.84;;;18.16
19102;BMP280;9683;49.028;12.064;2023-05-29T01:51:38;97306.28;;;18.14
19102;BMP280;9683;49.028;12.064;2023-05-29T01:54:06;97294.97;;;18.02
19102;BMP280;9683;49.028;12.064;2023-05-29T01:56:33;97293.66;;;18.00
19102;BMP280;9683;49.028;12.064;2023-05-29T01:59:02;97300.63;;;18.06
19102;BMP280;9683;49.028;12.064;2023-05-29T02:01:31;97298.78;;;17.96
19102;BMP280;9683;49.028;12.064;2023-05-29T02:03:57;97304.41;;;17.95
19102;BMP280;9683;49.028;12.064;2023-05-29T02:06:24;97295.00;;;17.87
19102;BMP280;9683;49.028;12.064;2023-05-29T02:08:50;97297.41;;;17.83
19102;BMP280;9683;49.028;12.064;2023-05-29T02:11:17;97299.00;;;17.84
19102;BMP280;9683;49.028;12.064;2023-05-29T02:13:43;97296.06;;;17.86
19102;BMP280;9683;49.028;12.064;2023-05-29T02:16:10;97282.31;;;17.77
19102;BMP280;9683;49.028;12.064;2023-05-29T02:18:37;97278.78;;;17.72
19102;BMP280;9683;49.028;12.064;2023-05-29T02:21:04;97281.50;;;17.72
19102;BMP280;9683;49.028;12.064;2023-05-29T02:23:31;97287.41;;;17.69
19102;BMP280;9683;49.028;12.064;2023-05-29T02:25:57;97280.94;;;17.60
19102;BMP280;9683;49.028;12.064;2023-05-29T02:28:23;97279.56;;;17.57
19102;BMP280;9683;49.028;12.064;2023-05-29T02:30:50;97290.59;;;17.51
19102;BMP280;9683;49.028;12.064;2023-05-29T02:33:16;97251.22;;;17.19
19102;BMP280;9683;49.028;12.064;2023-05-29T02:35:44;97288.13;;;17.34
19102;BMP280;9683;49.028;12.064;2023-05-29T02:38:11;97285.44;;;17.29
19102;BMP280;9683;49.028;12.064;2023-05-29T02:40:37;97293.75;;;17.27
19102;BMP280;9683;49.028;12.064;2023-05-29T02:43:05;97285.44;;;17.29
19102;BMP280;9683;49.028;12.064;2023-05-29T02:45:32;97278.16;;;17.24
19102;BMP280;9683;49.028;12.064;2023-05-29T02:47:58;97282.97;;;17.22
19102;BMP280;9683;49.028;12.064;2023-05-29T02:50:25;97283.25;;;17.16
19102;BMP280;9683;49.028;12.064;2023-05-29T02:52:53;97290.22;;;17.12
19102;BMP280;9683;49.028;12.064;2023-05-29T02:55:19;97284.28;;;17.10
19102;BMP280;9683;49.028;12.064;2023-05-29T02:57:46;97279.72;;;17.10
19102;BMP280;9683;49.028;12.064;2023-05-29T03:00:14;97260.88;;;17.00
19102;BMP280;9683;49.028;12.064;2023-05-29T03:02:41;97280.25;;;17.07
19102;BMP280;9683;49.028;12.064;2023-05-29T03:05:07;97280.78;;;17.04
19102;BMP280;9683;49.028;12.064;2023-05-29T03:07:34;97275.91;;;16.96
19102;BMP280;9683;49.028;12.064;2023-05-29T03:10:03;97274.78;;;16.87
19102;BMP280;9683;49.028;12.064;2023-05-29T03:12:30;97270.94;;;16.73
19102;BMP280;9683;49.028;12.064;2023-05-29T03:14:56;97277.94;;;16.74
19102;BMP280;9683;49.028;12.064;2023-05-29T03:17:23;97273.88;;;16.71
19102;BMP280;9683;49.028;12.064;2023-05-29T03:19:50;97272.81;;;16.72
19102;BMP280;9683;49.028;12.064;2023-05-29T03:22:16;97277.38;;;16.72
19102;BMP280;9683;49.028;12.064;2023-05-29T03:24:43;97276.28;;;16.68
19102;BMP280;9683;49.028;12.064;2023-05-29T03:27:11;97281.94;;;16.66
19102;BMP280;9683;49.028;12.064;2023-05-29T03:29:37;97281.63;;;16.63
19102;BMP280;9683;49.028;12.064;2023-05-29T03:32:04;97279.75;;;16.63
19102;BMP280;9683;49.028;12.064;2023-05-29T03:34:31;97285.13;;;16.63
19102;BMP280;9683;49.028;12.064;2023-05-29T03:36:57;97290.00;;;16.66
19102;BMP280;9683;49.028;12.064;2023-05-29T03:39:24;97265.50;;;16.58
19102;BMP280;9683;49.028;12.064;2023-05-29T03:41:50;97284.34;;;16.68
19102;BMP280;9683;49.028;12.064;2023-05-29T03:44:18;97287.84;;;16.68
19102;BMP280;9683;49.028;12.064;2023-05-29T03:46:45;97285.69;;;16.65
19102;BMP280;9683;49.028;12.064;2023-05-29T03:49:12;97292.66;;;16.61
19102;BMP280;9683;49.028;12.064;2023-05-29T03:51:38;97293.97;;;16.59
19102;BMP280;9683;49.028;12.064;2023-05-29T03:54:05;97292.84;;;16.55
19102;BMP280;9683;49.028;12.064;2023-05-29T03:56:31;97265.03;;;16.34
19102;BMP280;9683;49.028;12.064;2023-05-29T03:58:58;97304.13;;;16.51
19102;BMP280;9683;49.028;12.064;2023-05-29T04:01:26;97288.25;;;16.50
19102;BMP280;9683;49.028;12.064;2023-05-29T04:03:53;97290.94;;;16.50
19102;BMP280;9683;49.028;12.064;2023-05-29T04:06:20;97296.06;;;16.51
19102;BMP280;9683;49.028;12.064;2023-05-29T04:08:47;97301.69;;;16.50
19102;BMP280;9683;49.028;12.064;2023-05-29T04:11:13;97295.22;;;16.46
19102;BMP280;9683;49.028;12.064;2023-05-29T04:13:40;97306.53;;;16.48
19102;BMP280;9683;49.028;12.064;2023-05-29T04:16:07;97301.63;;;16.40
19102;BMP280;9683;49.028;12.064;2023-05-29T04:18:35;97281.41;;;16.27
19102;BMP280;9683;49.028;12.064;2023-05-29T04:21:01;97310.50;;;16.40
19102;BMP280;9683;49.028;12.064;2023-05-29T04:23:28;97310.47;;;16.35
19102;BMP280;9683;49.028;12.064;2023-05-29T04:25:55;97319.63;;;16.39
19102;BMP280;9683;49.028;12.064;2023-05-29T04:28:22;97320.69;;;16.38
19102;BMP280;9683;49.028;12.064;2023-05-29T04:30:48;97325.00;;;16.39
19102;BMP280;9683;49.028;12.064;2023-05-29T04:33:16;97323.66;;;16.37
19102;BMP280;9683;49.028;12.064;2023-05-29T04:35:44;97329.56;;;16.39
19102;BMP280;9683;49.028;12.064;2023-05-29T04:38:13;97332.25;;;16.39
19102;BMP280;9683;49.028;12.064;2023-05-29T04:40:41;97334.97;;;16.44
19102;BMP280;9683;49.028;12.064;2023-05-29T04:43:08;97334.41;;;16.42
19102;BMP280;9683;49.028;12.064;2023-05-29T04:45:35;97349.75;;;16.46
19102;BMP280;9683;49.028;12.064;2023-05-29T04:48:03;97356.50;;;16.49
19102;BMP280;9683;49.028;12.064;2023-05-29T04:50:29;97362.41;;;16.51
19102;BMP280;9683;49.028;12.064;2023-05-29T04:52:58;97328.16;;;16.31
19102;BMP280;9683;49.028;12.064;2023-05-29T04:55:24;97352.72;;;16.50
19102;BMP280;9683;49.028;12.064;2023-05-29T04:57:51;97352.47;;;16.51
19102;BMP280;9683;49.028;12.064;2023-05-29T05:00:18;97351.72;;;16.56
19102;BMP280;9683;49.028;12.064;2023-05-29T05:02:45;97357.34;;;16.55
19102;BMP280;9683;49.028;12.064;2023-05-29T05:05:12;97359.22;;;16.54
19102;BMP280;9683;49.028;12.064;2023-05-29T05:07:39;97353.53;;;16.50
19102;BMP280;9683;49.028;12.064;2023-05-29T05:10:07;97359.28;;;16.59
19102;BMP280;9683;49.028;12.064;2023-05-29T05:12:34;97353.66;;;16.61
19102;BMP280;9683;49.028;12.064;2023-05-29T05:15:00;97358.84;;;16.72
19102;BMP280;9683;49.028;12.064;2023-05-29T05:17:27;97357.00;;;16.78
19102;BMP280;9683;49.028;12.064;2023-05-29T05:19:53;97366.16;;;16.82
19102;BMP280;9683;49.028;12.064;2023-05-29T05:22:20;97372.63;;;16.86
19102;BMP280;9683;49.028;12.064;2023-05-29T05:24:46;97372.63;;;16.86
19102;BMP280;9683;49.028;12.064;2023-05-29T05:27:14;97376.19;;;16.91
19102;BMP280;9683;49.028;12.064;2023-05-29T05:29:41;97379.38;;;16.88
19102;BMP280;9683;49.028;12.064;2023-05-29T05:32:07;97377.50;;;16.89
19102;BMP280;9683;49.028;12.064;2023-05-29T05:34:34;97375.03;;;16.82
19102;BMP280;9683;49.028;12.064;2023-05-29T05:37:01;97362.09;;;16.79
19102;BMP280;9683;49.028;12.064;2023-05-29T05:39:27;97384.97;;;16.82
19102;BMP280;9683;49.028;12.064;2023-05-29T05:41:54;97375.25;;;16.76
19102;BMP280;9683;49.028;12.064;2023-05-29T05:44:22;97346.69;;;16.65
19102;BMP280;9683;49.028;12.064;2023-05-29T05:46:48;97340.22;;;16.61
19102;BMP280;9683;49.028;12.064;2023-05-29T05:49:15;97371.75;;;16.75
19102;BMP280;9683;49.028;12.064;2023-05-29T05:51:41;97374.22;;;16.82
19102;BMP280;9683;49.028;12.064;2023-05-29T05:54:08;97377.50;;;16.89
19102;BMP280;9683;49.028;12.064;2023-05-29T05:56:34;97385.84;;;16.87
19102;BMP280;9683;49.028;12.064;2023-05-29T05:59:01;97389.03;;;16.84
19102;BMP280;9683;49.028;12.064;2023-05-29T06:01:29;97389.81;;;16.85
19102;BMP280;9683;49.028;12.064;2023-05-29T06:03:55;97372.63;;;16.86
19102;BMP280;9683;49.028;12.064;2023-05-29T06:06:22;97382.09;;;16.93
19102;BMP280;9683;49.028;12.064;2023-05-29T06:08:48;97385.34;;;17.01
19102;BMP280;9683;49.028;12.064;2023-05-29T06:11:15;97393.72;;;17.09
19102;BMP280;9683;49.028;12.064;2023-05-29T06:13:42;97387.84;;;17.17
19102;BMP280;9683;49.028;12.064;2023-05-29T06:16:09;97395.97;;;17.22
19102;BMP280;9683;49.028;12.064;2023-05-29T06:18:37;97397.63;;;17.28
19102;BMP280;9683;49.028;12.064;2023-05-29T06:21:03;97390.34;;;17.29
19102;BMP280;9683;49.028;12.064;2023-05-29T06:23:32;97389.31;;;17.40
19102;BMP280;9683;49.028;12.064;2023-05-29T06:25:59;97392.56;;;17.47
19102;BMP280;9683;49.028;12.064;2023-05-29T06:28:25;97392.41;;;17.59
19102;BMP280;9683;49.028;12.064;2023-05-29T06:30:52;97397.81;;;17.69
19102;BMP280;9683;49.028;12.064;2023-05-29T06:33:19;97394.59;;;17.77
19102;BMP280;9683;49.028;12.064;2023-05-29T06:35:48;97366.03;;;17.66
19102;BMP280;9683;49.028;12.064;2023-05-29T06:38:15;97396.75;;;17.85
19102;BMP280;9683;49.028;12.064;2023-05-29T06:40:41;97397.59;;;17.91
19102;BMP280;9683;49.028;12.064;2023-05-29T06:43:08;97405.41;;;17.97
19102;BMP280;9683;49.028;12.064;2023-05-29T06:45:35;97400.03;;;18.02
19102;BMP280;9683;49.028;12.064;2023-05-29T06:48:02;97390.34;;;18.06
19102;BMP280;9683;49.028;12.064;2023-05-29T06:50:28;97406.78;;;18.15
19102;BMP280;9683;49.028;12.064;2023-05-29T06:52:56;97406.25;;;18.23
19102;BMP280;9683;49.028;12.064;2023-05-29T06:55:23;97406.56;;;18.26
19102;BMP280;9683;49.028;12.064;2023-05-29T06:57:49;97418.41;;;18.36
19102;BMP280;9683;49.028;12.064;2023-05-29T07:00:17;97413.56;;;18.43
19102;BMP280;9683;49.028;12.064;2023-05-29T07:02:43;97414.09;;;18.45
19102;BMP280;9683;49.028;12.064;2023-05-29T07:05:10;97415.75;;;18.51
19102;BMP280;9683;49.028;12.064;2023-05-29T07:07:36;97413.84;;;18.56
19102;BMP280;9683;49.028;12.064;2023-05-29T07:10:05;97412.53;;;18.64
19102;BMP280;9683;49.028;12.064;2023-05-29T07:12:32;97414.44;;;18.68
19102;BMP280;9683;49.028;12.064;2023-05-29T07:14:58;97410.91;;;18.68
19102;BMP280;9683;49.028;12.064;2023-05-29T07:17:25;97406.84;;;18.70
19102;BMP280;9683;49.028;12.064;2023-05-29T07:19:51;97416.28;;;18.78
19102;BMP280;9683;49.028;12.064;2023-05-29T07:22:19;97395.00;;;18.71
19102;BMP280;9683;49.028;12.064;2023-05-29T07:24:45;97415.47;;;18.93
19102;BMP280;9683;49.028;12.064;2023-05-29T07:27:13;97407.91;;;19.00
19102;BMP280;9683;49.028;12.064;2023-05-29T07:29:40;97412.22;;;19.06
19102;BMP280;9683;49.028;12.064;2023-05-29T07:32:06;97416.81;;;19.10
19102;BMP280;9683;49.028;12.064;2023-05-29T07:34:33;97410.28;;;19.16
19102;BMP280;9683;49.028;12.064;2023-05-29T07:37:01;97407.59;;;19.21
19102;BMP280;9683;49.028;12.064;2023-05-29T07:39:28;97410.81;;;19.23
19102;BMP280;9683;49.028;12.064;2023-05-29T07:41:54;97419.97;;;19.33
19102;BMP280;9683;49.028;12.064;2023-05-29T07:44:22;97411.84;;;19.38
19102;BMP280;9683;49.028;12.064;2023-05-29T07:46:49;97414.56;;;19.43
19102;BMP280;9683;49.028;12.064;2023-05-29T07:49:15;97410.50;;;19.45
19102;BMP280;9683;49.028;12.064;2023-05-29T07:51:42;97408.84;;;19.54
19102;BMP280;9683;49.028;12.064;2023-05-29T07:54:08;97389.44;;;19.47
19102;BMP280;9683;49.028;12.064;2023-05-29T07:56:35;97414.50;;;19.63
19102;BMP280;9683;49.028;12.064;2023-05-29T07:59:02;97320.19;;;19.07
19102;BMP280;9683;49.028;12.064;2023-05-29T08:01:30;97410.66;;;19.74
19102;BMP280;9683;49.028;12.064;2023-05-29T08:03:56;97411.72;;;19.78
19102;BMP280;9683;49.028;12.064;2023-05-29T08:06:23;97394.44;;;19.74
19102;BMP280;9683;49.028;12.064;2023-05-29T08:08:49;97416.81;;;19.90
19102;BMP280;9683;49.028;12.064;2023-05-29T08:11:17;97403.81;;;19.92
19102;BMP280;9683;49.028;12.064;2023-05-29T08:13:43;97406.22;;;19.98
19102;BMP280;9683;49.028;12.064;2023-05-29T08:16:10;97396.25;;;19.94
19102;BMP280;9683;49.028;12.064;2023-05-29T08:18:40;97405.88;;;20.10
19102;BMP280;9683;49.028;12.064;2023-05-29T08:21:07;97404.78;;;20.11
19102;BMP280;9683;49.028;12.064;2023-05-29T08:23:34;97400.13;;;20.17
19102;BMP280;9683;49.028;12.064;2023-05-29T08:26:01;97400.41;;;20.20
19102;BMP280;9683;49.028;12.064;2023-05-29T08:28:28;97410.34;;;20.25
19102;BMP280;9683;49.028;12.064;2023-05-29T08:30:55;97396.56;;;20.26
19102;BMP280;9683;49.028;12.064;2023-05-29T08:33:21;97400.09;;;20.32
19102;BMP280;9683;49.028;12.064;2023-05-29T08:35:49;97399.78;;;20.33
19102;BMP280;9683;49.028;12.064;2023-05-29T08:38:16;97416.78;;;20.39
19102;BMP280;9683;49.028;12.064;2023-05-29T08:40:42;97414.06;;;20.44
19102;BMP280;9683;49.028;12.064;2023-05-29T08:43:12;97407.50;;;20.50
19102;BMP280;9683;49.028;12.064;2023-05-29T08:45:42;97412.88;;;20.55
19102;BMP280;9683;49.028;12.064;2023-05-29T08:48:10;97406.13;;;20.57
19102;BMP280;9683;49.028;12.064;2023-05-29T08:50:42;97413.88;;;20.64
19102;BMP280;9683;49.028;12.064;2023-05-29T08:53:11;97414.66;;;20.70
19102;BMP280;9683;49.028;12.064;2023-05-29T08:55:37;97395.75;;;20.65
19102;BMP280;9683;49.028;12.064;2023-05-29T08:58:04;97407.25;;;20.80
19102;BMP280;9683;49.028;12.064;2023-05-29T09:00:31;97409.91;;;20.85
19102;BMP280;9683;49.028;12.064;2023-05-29T09:02:58;97414.47;;;20.90
19102;BMP280;9683;49.028;12.064;2023-05-29T09:05:26;97409.91;;;20.85
19102;BMP280;9683;49.028;12.064;2023-05-29T09:07:52;97413.59;;;20.99
19102;BMP280;9683;49.028;12.064;2023-05-29T09:10:20;97422.16;;;21.07
19102;BMP280;9683;49.028;12.064;2023-05-29T09:12:48;97416.97;;;21.10
19102;BMP280;9683;49.028;12.064;2023-05-29T09:15:19;97412.63;;;21.14
19102;BMP280;9683;49.028;12.064;2023-05-29T09:17:49;97416.91;;;21.20
19102;BMP280;9683;49.028;12.064;2023-05-29T09:20:17;97409.59;;;21.21
19102;BMP280;9683;49.028;12.064;2023-05-29T09:22:52;97407.63;;;21.26
19102;BMP280;9683;49.028;12.064;2023-05-29T09:25:22;97410.06;;;21.28
19102;BMP280;9683;49.028;12.064;2023-05-29T09:27:51;97415.44;;;21.33
19102;BMP280;9683;49.028;12.064;2023-05-29T09:30:31;97415.59;;;21.41
19102;BMP280;9683;49.028;12.064;2023-05-29T09:32:59;97390.81;;;21.29
19102;BMP280;9683;49.028;12.064;2023-05-29T09:35:32;97406.91;;;21.44
19102;BMP280;9683;49.028;12.064;2023-05-29T09:37:59;97409.59;;;21.44
19102;BMP280;9683;49.028;12.064;2023-05-29T09:40:29;97413.34;;;21.48
19102;BMP280;9683;49.028;12.064;2023-05-29T09:42:56;97416.28;;;21.52
19102;BMP280;9683;49.028;12.064;2023-05-29T09:45:28;97425.44;;;21.56
19102;BMP280;9683;49.028;12.064;2023-05-29T09:47:55;97415.94;;;21.59
19102;BMP280;9683;49.028;12.064;2023-05-29T09:50:25;97420.25;;;21.60
19102;BMP280;9683;49.028;12.064;2023-05-29T09:52:52;97419.97;;;21.61
19102;BMP280;9683;49.028;12.064;2023-05-29T09:55:20;97422.84;;;21.70
19102;BMP280;9683;49.028;12.064;2023-05-29T09:57:48;97416.03;;;21.72
19102;BMP280;9683;49.028;12.064;2023-05-29T10:00:15;97415.22;;;21.72
19102;BMP280;9683;49.028;12.064;2023-05-29T10:02:43;97422.78;;;21.75
19102;BMP280;9683;49.028;12.064;2023-05-29T10:05:10;97416.50;;;21.79
19102;BMP280;9683;49.028;12.064;2023-05-29T10:07:43;97419.13;;;21.84
19102;BMP280;9683;49.028;12.064;2023-05-29T10:10:11;97419.94;;;21.85
19102;BMP280;9683;49.028;12.064;2023-05-29T10:12:42;97427.19;;;21.89
19102;BMP280;9683;49.028;12.064;2023-05-29T10:15:13;97426.91;;;21.91
19102;BMP280;9683;49.028;12.064;2023-05-29T10:17:49;97402.09;;;21.84
19102;BMP280;9683;49.028;12.064;2023-05-29T10:20:17;97408.75;;;21.91
19102;BMP280;9683;49.028;12.064;2023-05-29T10:22:46;97408.94;;;22.00
19102;BMP280;9683;49.028;12.064;2023-05-29T10:25:13;97384.41;;;21.86
19102;BMP280;9683;49.028;12.064;2023-05-29T10:27:40;97408.34;;;22.03
19102;BMP280;9683;49.028;12.064;2023-05-29T10:30:14;97408.28;;;22.08
19102;BMP280;9683;49.028;12.064;2023-05-29T10:32:56;97411.19;;;22.12
19102;BMP280;9683;49.028;12.064;2023-05-29T10:35:32;97407.91;;;22.15
19102;BMP280;9683;49.028;12.064;2023-05-29T10:38:10;97393.63;;;22.09
19102;BMP280;9683;49.028;12.064;2023-05-29T10:40:37;97403.22;;;22.20
19102;BMP280;9683;49.028;12.064;2023-05-29T10:43:03;97402.34;;;22.25
19102;BMP280;9683;49.028;12.064;2023-05-29T10:45:50;97395.72;;;22.31
19102;BMP280;9683;49.028;12.064;2023-05-29T10:48:40;97401.38;;;22.34
19102;BMP280;9683;49.028;12.064;2023-05-29T10:51:08;97403.50;;;22.37
19102;BMP280;9683;49.028;12.064;2023-05-29T10:53:35;97405.34;;;22.42
19102;BMP280;9683;49.028;12.064;2023-05-29T10:56:08;97397.41;;;22.46
19102;BMP280;9683;49.028;12.064;2023-05-29T10:58:36;97397.91;;;22.48
19102;BMP280;9683;49.028;12.064;2023-05-29T11:01:04;97389.69;;;22.53
19102;BMP280;9683;49.028;12.064;2023-05-29T11:03:32;97382.88;;;22.55
19102;BMP280;9683;49.028;12.064;2023-05-29T11:05:59;97381.19;;;22.59
19102;BMP280;9683;49.028;12.064;2023-05-29T11:08:32;97395.75;;;22.63
19102;BMP280;9683;49.028;12.064;2023-05-29T11:10:59;97395.97;;;22.67
19102;BMP280;9683;49.028;12.064;2023-05-29T11:13:27;97390.25;;;22.68
19102;BMP280;9683;49.028;12.064;2023-05-29T11:16:35;97376.94;;;22.72
19102;BMP280;9683;49.028;12.064;2023-05-29T11:19:04;97378.75;;;22.76
19102;BMP280;9683;49.028;12.064;2023-05-29T11:21:34;97381.66;;;22.80
19102;BMP280;9683;49.028;12.064;2023-05-29T11:24:02;97386.19;;;22.84
19102;BMP280;9683;49.028;12.064;2023-05-29T11:26:30;97361.34;;;22.77
19102;BMP280;9683;49.028;12.064;2023-05-29T11:28:58;97391.97;;;22.97
19102;BMP280;9683;49.028;12.064;2023-05-29T11:31:27;97379.88;;;23.03
19102;BMP280;9683;49.028;12.064;2023-05-29T11:33:59;97376.59;;;23.06
19102;BMP280;9683;49.028;12.064;2023-05-29T11:36:26;97373.25;;;23.09
19102;BMP280;9683;49.028;12.064;2023-05-29T11:38:53;97372.84;;;23.15
19102;BMP280;9683;49.028;12.064;2023-05-29T11:41:20;97363.81;;;23.20
19102;BMP280;9683;49.028;12.064;2023-05-29T11:43:56;97375.59;;;23.29
19102;BMP280;9683;49.028;12.064;2023-05-29T11:46:22;97366.81;;;23.32
19102;BMP280;9683;49.028;12.064;2023-05-29T11:48:52;97341.50;;;23.23
19102;BMP280;9683;49.028;12.064;2023-05-29T11:51:19;97368.53;;;23.42
19102;BMP280;9683;49.028;12.064;2023-05-29T11:53:47;97376.81;;;23.50
19102;BMP280;9683;49.028;12.064;2023-05-29T11:56:13;97368.06;;;23.53
19102;BMP280;9683;49.028;12.064;2023-05-29T11:58:40;97367.94;;;23.58
19102;BMP280;9683;49.028;12.064;2023-05-29T12:01:07;97375.19;;;23.63
19102;BMP280;9683;49.028;12.064;2023-05-29T12:03:37;97375.91;;;23.68
19102;BMP280;9683;49.028;12.064;2023-05-29T12:06:07;97374.69;;;23.74
19102;BMP280;9683;49.028;12.064;2023-05-29T12:08:36;97369.13;;;23.80
19102;BMP280;9683;49.028;12.064;2023-05-29T12:11:03;97370.47;;;23.82
19102;BMP280;9683;49.028;12.064;2023-05-29T12:13:30;97370.84;;;23.89
19102;BMP280;9683;49.028;12.064;2023-05-29T12:15:57;97368.50;;;23.96
19102;BMP280;9683;49.028;12.064;2023-05-29T12:18:26;97372.53;;;23.99
19102;BMP280;9683;49.028;12.064;2023-05-29T12:20:57;97362.31;;;24.04
19102;BMP280;9683;49.028;12.064;2023-05-29T12:23:26;97365.56;;;24.06
19102;BMP280;9683;49.028;12.064;2023-05-29T12:25:54;97364.00;;;24.14
19102;BMP280;9683;49.028;12.064;2023-05-29T12:28:20;97369.66;;;24.17
19102;BMP280;9683;49.028;12.064;2023-05-29T12:30:49;97367.66;;;24.23
19102;BMP280;9683;49.028;12.064;2023-05-29T12:33:28;97357.94;;;24.31
19102;BMP280;9683;49.028;12.064;2023-05-29T12:35:54;97359.44;;;24.37
19102;BMP280;9683;49.028;12.064;2023-05-29T12:38:22;97351.63;;;24.44
19102;BMP280;9683;49.028;12.064;2023-05-29T12:40:50;97358.13;;;24.56
19102;BMP280;9683;49.028;12.064;2023-05-29T12:43:18;97360.72;;;24.61
19102;BMP280;9683;49.028;12.064;2023-05-29T12:45:44;97366.72;;;24.72
19102;BMP280;9683;49.028;12.064;2023-05-29T12:48:11;97356.16;;;24.79
19102;BMP280;9683;49.028;12.064;2023-05-29T12:50:38;97356.03;;;24.84
19102;BMP280;9683;49.028;12.064;2023-05-29T12:53:06;97359.94;;;24.92
19102;BMP280;9683;49.028;12.064;2023-05-29T12:55:34;97357.09;;;24.97
19102;BMP280;9683;49.028;12.064;2023-05-29T12:58:03;97365.00;;;25.07
19102;BMP280;9683;49.028;12.064;2023-05-29T13:00:30;97351.72;;;25.14
19102;BMP280;9683;49.028;12.064;2023-05-29T13:02:57;97361.56;;;25.24
19102;BMP280;9683;49.028;12.064;2023-05-29T13:05:23;97361.91;;;25.31
19102;BMP280;9683;49.028;12.064;2023-05-29T13:07:50;97360.00;;;25.40
19102;BMP280;9683;49.028;12.064;2023-05-29T13:10:17;97356.19;;;25.49
19102;BMP280;9683;49.028;12.064;2023-05-29T13:12:44;97357.84;;;25.59
19102;BMP280;9683;49.028;12.064;2023-05-29T13:15:14;97339.72;;;25.54
19102;BMP280;9683;49.028;12.064;2023-05-29T13:17:41;97350.84;;;25.75
19102;BMP280;9683;49.028;12.064;2023-05-29T13:20:09;97363.84;;;25.87
19102;BMP280;9683;49.028;12.064;2023-05-29T13:22:36;97351.81;;;25.96
19102;BMP280;9683;49.028;12.064;2023-05-29T13:25:04;97341.06;;;26.00
19102;BMP280;9683;49.028;12.064;2023-05-29T13:27:32;97341.69;;;26.14
19102;BMP280;9683;49.028;12.064;2023-05-29T13:29:59;97338.81;;;26.19
19102;BMP280;9683;49.028;12.064;2023-05-29T13:32:28;97346.72;;;26.29
19102;BMP280;9683;49.028;12.064;2023-05-29T13:34:55;97351.38;;;26.37
19102;BMP280;9683;49.028;12.064;2023-05-29T13:37:21;97337.06;;;26.40
19102;BMP280;9683;49.028;12.064;2023-05-29T13:39:48;97350.41;;;26.51
19102;BMP280;9683;49.028;12.064;2023-05-29T13:42:16;97341.22;;;26.55
19102;BMP280;9683;49.028;12.064;2023-05-29T13:44:42;97334.63;;;26.56
19102;BMP280;9683;49.028;12.064;2023-05-29T13:47:09;97347.16;;;26.66
19102;BMP280;9683;49.028;12.064;2023-05-29T13:49:37;97320.47;;;26.71
19102;BMP280;9683;49.028;12.064;2023-05-29T13:52:04;97329.13;;;26.73
19102;BMP280;9683;49.028;12.064;2023-05-29T13:54:31;97331.03;;;26.81
19102;BMP280;9683;49.028;12.064;2023-05-29T13:57:01;97331.84;;;26.90
19102;BMP280;9683;49.028;12.064;2023-05-29T13:59:28;97332.16;;;26.98
19102;BMP280;9683;49.028;12.064;2023-05-29T14:01:54;97322.63;;;27.04
19102;BMP280;9683;49.028;12.064;2023-05-29T14:04:21;97314.25;;;27.09
19102;BMP280;9683;49.028;12.064;2023-05-29T14:06:49;97312.78;;;27.11
19102;BMP280;9683;49.028;12.064;2023-05-29T14:09:16;97314.03;;;27.22
19102;BMP280;9683;49.028;12.064;2023-05-29T14:11:47;97313.19;;;27.30
19102;BMP280;9683;49.028;12.064;2023-05-29T14:14:14;97325.88;;;27.35